sensor_id;sensor_type;location;lat;lon;timestamp;P1;durP1;ratioP1;P2;durP2;ratioP2
57443;SDS011;43289;52.962;6.196;2024-01-27T00:00:08;14.75;;;4.75;;
57443;SDS011;43289;52.962;6.196;2024-01-27T00:02:35;12.23;;;3.78;;
57443;SDS011;43289;52.962;6.196;2024-01-27T00:05:01;19.92;;;5.35;;
57443;SDS011;43289;52.962;6.196;2024-01-27T00:07:27;16.63;;;4.43;;
57443;SDS011;43289;52.962;6.196;2024-01-27T00:09:57;16.05;;;5.57;;
57443;SDS011;43289;52.962;6.196;2024-01-27T00:12:24;23.52;;;5.25;;
57443;SDS011;43289;52.962;6.196;2024-01-27T00:14:50;18.73;;;4.25;;
57443;SDS011;43289;52.962;6.196;2024-01-27T00:17:16;16.33;;;4.18;;
57443;SDS011;43289;52.962;6.196;2024-01-27T00:19:42;12.55;;;3.67;;
57443;SDS011;43289;52.962;6.196;2024-01-27T00:22:08;19.83;;;3.90;;
57443;SDS011;43289;52.962;6.196;2024-01-27T00:24:34;18.60;;;4.07;;
57443;SDS011;43289;52.962;6.196;2024-01-27T00:27:00;21.95;;;7.05;;
57443;SDS011;43289;52.962;6.196;2024-01-27T00:29:26;16.92;;;4.05;;
57443;SDS011;43289;52.962;6.196;2024-01-27T00:31:52;16.13;;;4.97;;
57443;SDS011;43289;52.962;6.196;2024-01-27T00:34:20;20.75;;;6.78;;
57443;SDS011;43289;52.962;6.196;2024-01-27T00:36:46;20.73;;;4.00;;
57443;SDS011;43289;52.962;6.196;2024-01-27T00:39:17;15.00;;;3.90;;
57443;SDS011;43289;52.962;6.196;2024-01-27T00:41:44;18.23;;;5.47;;
57443;SDS011;43289;52.962;6.196;2024-01-27T00:44:10;16.30;;;5.07;;
57443;SDS011;43289;52.962;6.196;2024-01-27T00:46:36;17.88;;;4.38;;
57443;SDS011;43289;52.962;6.196;2024-01-27T00:49:02;15.57;;;3.92;;
57443;SDS011;43289;52.962;6.196;2024-01-27T00:51:29;14.48;;;4.55;;
57443;SDS011;43289;52.962;6.196;2024-01-27T00:53:55;22.00;;;5.60;;
57443;SDS011;43289;52.962;6.196;2024-01-27T00:56:21;19.73;;;4.15;;
57443;SDS011;43289;52.962;6.196;2024-01-27T00:58:48;24.50;;;5.45;;
57443;SDS011;43289;52.962;6.196;2024-01-27T01:01:14;19.15;;;6.22;;
57443;SDS011;43289;52.962;6.196;2024-01-27T01:03:40;13.75;;;4.50;;
57443;SDS011;43289;52.962;6.196;2024-01-27T01:06:06;13.30;;;4.60;;
57443;SDS011;43289;52.962;6.196;2024-01-27T01:08:32;19.23;;;4.68;;
57443;SDS011;43289;52.962;6.196;2024-01-27T01:10:58;15.43;;;4.78;;
57443;SDS011;43289;52.962;6.196;2024-01-27T01:13:24;21.63;;;4.93;;
57443;SDS011;43289;52.962;6.196;2024-01-27T01:15:50;19.67;;;4.63;;
57443;SDS011;43289;52.962;6.196;2024-01-27T01:18:16;13.75;;;3.95;;
57443;SDS011;43289;52.962;6.196;2024-01-27T01:20:42;14.18;;;4.32;;
57443;SDS011;43289;52.962;6.196;2024-01-27T01:23:08;13.25;;;4.20;;
57443;SDS011;43289;52.962;6.196;2024-01-27T01:25:34;14.52;;;4.75;;
57443;SDS011;43289;52.962;6.196;2024-01-27T01:28:00;24.23;;;4.50;;
57443;SDS011;43289;52.962;6.196;2024-01-27T01:30:27;17.42;;;4.53;;
57443;SDS011;43289;52.962;6.196;2024-01-27T01:32:53;15.82;;;4.50;;
57443;SDS011;43289;52.962;6.196;2024-01-27T01:35:20;11.15;;;3.63;;
57443;SDS011;43289;52.962;6.196;2024-01-27T01:37:46;12.80;;;4.32;;
57443;SDS011;43289;52.962;6.196;2024-01-27T01:40:13;11.48;;;3.72;;
57443;SDS011;43289;52.962;6.196;2024-01-27T01:42:40;15.07;;;3.42;;
57443;SDS011;43289;52.962;6.196;2024-01-27T01:45:06;9.38;;;3.55;;
57443;SDS011;43289;52.962;6.196;2024-01-27T01:47:34;14.98;;;4.13;;
57443;SDS011;43289;52.962;6.196;2024-01-27T01:50:00;13.95;;;3.67;;
57443;SDS011;43289;52.962;6.196;2024-01-27T01:52:26;16.55;;;3.97;;
57443;SDS011;43289;52.962;6.196;2024-01-27T01:54:52;15.85;;;4.00;;
57443;SDS011;43289;52.962;6.196;2024-01-27T01:57:18;12.98;;;3.15;;
57443;SDS011;43289;52.962;6.196;2024-01-27T01:59:44;17.27;;;3.80;;
57443;SDS011;43289;52.962;6.196;2024-01-27T02:02:11;17.35;;;3.55;;
57443;SDS011;43289;52.962;6.196;2024-01-27T02:04:41;19.05;;;4.93;;
57443;SDS011;43289;52.962;6.196;2024-01-27T02:07:07;29.30;;;6.70;;
57443;SDS011;43289;52.962;6.196;2024-01-27T02:09:33;12.25;;;3.67;;
57443;SDS011;43289;52.962;6.196;2024-01-27T02:12:01;26.73;;;4.47;;
57443;SDS011;43289;52.962;6.196;2024-01-27T02:14:27;20.48;;;4.88;;
57443;SDS011;43289;52.962;6.196;2024-01-27T02:16:54;14.88;;;4.43;;
57443;SDS011;43289;52.962;6.196;2024-01-27T02:19:20;15.07;;;3.83;;
57443;SDS011;43289;52.962;6.196;2024-01-27T02:21:46;15.07;;;4.25;;
57443;SDS011;43289;52.962;6.196;2024-01-27T02:24:12;13.52;;;3.65;;
57443;SDS011;43289;52.962;6.196;2024-01-27T02:26:38;16.42;;;3.83;;
57443;SDS011;43289;52.962;6.196;2024-01-27T02:29:04;16.25;;;3.83;;
57443;SDS011;43289;52.962;6.196;2024-01-27T02:31:30;12.13;;;4.53;;
57443;SDS011;43289;52.962;6.196;2024-01-27T02:33:56;14.63;;;4.60;;
57443;SDS011;43289;52.962;6.196;2024-01-27T02:36:23;16.25;;;4.15;;
57443;SDS011;43289;52.962;6.196;2024-01-27T02:38:49;18.38;;;4.57;;
57443;SDS011;43289;52.962;6.196;2024-01-27T02:41:15;18.80;;;3.80;;
57443;SDS011;43289;52.962;6.196;2024-01-27T02:43:41;17.27;;;4.38;;
57443;SDS011;43289;52.962;6.196;2024-01-27T02:46:11;15.43;;;4.40;;
57443;SDS011;43289;52.962;6.196;2024-01-27T02:48:44;14.52;;;3.95;;
57443;SDS011;43289;52.962;6.196;2024-01-27T02:51:10;15.10;;;4.63;;
57443;SDS011;43289;52.962;6.196;2024-01-27T02:53:36;13.73;;;3.88;;
57443;SDS011;43289;52.962;6.196;2024-01-27T02:56:05;15.93;;;4.03;;
57443;SDS011;43289;52.962;6.196;2024-01-27T02:58:32;18.05;;;3.83;;
57443;SDS011;43289;52.962;6.196;2024-01-27T03:00:58;17.55;;;4.78;;
57443;SDS011;43289;52.962;6.196;2024-01-27T03:03:24;19.70;;;3.78;;
57443;SDS011;43289;52.962;6.196;2024-01-27T03:05:50;13.60;;;3.95;;
57443;SDS011;43289;52.962;6.196;2024-01-27T03:08:16;12.43;;;3.63;;
57443;SDS011;43289;52.962;6.196;2024-01-27T03:10:42;15.88;;;3.65;;
57443;SDS011;43289;52.962;6.196;2024-01-27T03:13:08;15.95;;;4.07;;
57443;SDS011;43289;52.962;6.196;2024-01-27T03:15:36;15.32;;;4.40;;
57443;SDS011;43289;52.962;6.196;2024-01-27T03:18:03;12.45;;;3.88;;
57443;SDS011;43289;52.962;6.196;2024-01-27T03:20:30;16.25;;;3.75;;
57443;SDS011;43289;52.962;6.196;2024-01-27T03:22:56;19.20;;;4.30;;
57443;SDS011;43289;52.962;6.196;2024-01-27T03:25:22;17.45;;;4.93;;
57443;SDS011;43289;52.962;6.196;2024-01-27T03:27:50;15.88;;;3.97;;
57443;SDS011;43289;52.962;6.196;2024-01-27T03:30:16;16.50;;;4.80;;
57443;SDS011;43289;52.962;6.196;2024-01-27T03:32:42;12.77;;;4.03;;
57443;SDS011;43289;52.962;6.196;2024-01-27T03:35:08;17.83;;;3.75;;
57443;SDS011;43289;52.962;6.196;2024-01-27T03:37:35;14.82;;;3.38;;
57443;SDS011;43289;52.962;6.196;2024-01-27T03:40:01;15.25;;;3.88;;
57443;SDS011;43289;52.962;6.196;2024-01-27T03:42:27;16.40;;;3.97;;
57443;SDS011;43289;52.962;6.196;2024-01-27T03:44:53;14.07;;;4.10;;
57443;SDS011;43289;52.962;6.196;2024-01-27T03:47:19;16.13;;;4.05;;
57443;SDS011;43289;52.962;6.196;2024-01-27T03:49:46;14.13;;;3.78;;
57443;SDS011;43289;52.962;6.196;2024-01-27T03:52:12;20.35;;;5.70;;
57443;SDS011;43289;52.962;6.196;2024-01-27T03:54:38;15.57;;;3.83;;
57443;SDS011;43289;52.962;6.196;2024-01-27T03:57:04;14.05;;;3.65;;
57443;SDS011;43289;52.962;6.196;2024-01-27T03:59:30;16.42;;;4.50;;
57443;SDS011;43289;52.962;6.196;2024-01-27T04:01:56;19.80;;;4.40;;
57443;SDS011;43289;52.962;6.196;2024-01-27T04:04:22;18.88;;;5.15;;
57443;SDS011;43289;52.962;6.196;2024-01-27T04:06:49;16.15;;;4.03;;
57443;SDS011;43289;52.962;6.196;2024-01-27T04:09:15;11.20;;;3.25;;
57443;SDS011;43289;52.962;6.196;2024-01-27T04:11:41;16.00;;;4.60;;
57443;SDS011;43289;52.962;6.196;2024-01-27T04:14:07;16.55;;;3.47;;
57443;SDS011;43289;52.962;6.196;2024-01-27T04:16:33;19.08;;;4.05;;
57443;SDS011;43289;52.962;6.196;2024-01-27T04:18:59;14.77;;;3.70;;
57443;SDS011;43289;52.962;6.196;2024-01-27T04:21:25;15.68;;;3.80;;
57443;SDS011;43289;52.962;6.196;2024-01-27T04:23:51;16.48;;;4.45;;
57443;SDS011;43289;52.962;6.196;2024-01-27T04:26:17;16.70;;;4.53;;
57443;SDS011;43289;52.962;6.196;2024-01-27T04:28:43;19.33;;;4.38;;
57443;SDS011;43289;52.962;6.196;2024-01-27T04:31:10;18.40;;;4.00;;
57443;SDS011;43289;52.962;6.196;2024-01-27T04:33:36;15.50;;;3.55;;
57443;SDS011;43289;52.962;6.196;2024-01-27T04:36:02;31.55;;;4.65;;
57443;SDS011;43289;52.962;6.196;2024-01-27T04:38:28;12.25;;;4.05;;
57443;SDS011;43289;52.962;6.196;2024-01-27T04:40:54;18.73;;;4.03;;
57443;SDS011;43289;52.962;6.196;2024-01-27T04:43:20;19.67;;;4.00;;
57443;SDS011;43289;52.962;6.196;2024-01-27T04:45:49;12.35;;;3.90;;
57443;SDS011;43289;52.962;6.196;2024-01-27T04:48:15;15.70;;;3.95;;
57443;SDS011;43289;52.962;6.196;2024-01-27T04:50:41;15.10;;;4.75;;
57443;SDS011;43289;52.962;6.196;2024-01-27T04:53:07;15.20;;;4.13;;
57443;SDS011;43289;52.962;6.196;2024-01-27T04:55:33;20.23;;;4.55;;
57443;SDS011;43289;52.962;6.196;2024-01-27T04:57:59;17.70;;;4.05;;
57443;SDS011;43289;52.962;6.196;2024-01-27T05:00:25;18.98;;;4.28;;
57443;SDS011;43289;52.962;6.196;2024-01-27T05:02:53;16.67;;;4.00;;
57443;SDS011;43289;52.962;6.196;2024-01-27T05:05:19;17.45;;;5.43;;
57443;SDS011;43289;52.962;6.196;2024-01-27T05:07:45;19.05;;;4.75;;
57443;SDS011;43289;52.962;6.196;2024-01-27T05:10:14;13.57;;;4.25;;
57443;SDS011;43289;52.962;6.196;2024-01-27T05:12:40;18.55;;;4.97;;
57443;SDS011;43289;52.962;6.196;2024-01-27T05:15:06;17.80;;;4.63;;
57443;SDS011;43289;52.962;6.196;2024-01-27T05:17:33;18.25;;;4.50;;
57443;SDS011;43289;52.962;6.196;2024-01-27T05:19:59;16.77;;;5.45;;
57443;SDS011;43289;52.962;6.196;2024-01-27T05:22:25;21.15;;;4.85;;
57443;SDS011;43289;52.962;6.196;2024-01-27T05:24:51;17.10;;;4.57;;
57443;SDS011;43289;52.962;6.196;2024-01-27T05:27:17;17.38;;;4.10;;
57443;SDS011;43289;52.962;6.196;2024-01-27T05:29:43;17.42;;;4.28;;
57443;SDS011;43289;52.962;6.196;2024-01-27T05:32:09;16.95;;;5.75;;
57443;SDS011;43289;52.962;6.196;2024-01-27T05:34:35;16.98;;;4.47;;
57443;SDS011;43289;52.962;6.196;2024-01-27T05:37:01;23.08;;;5.03;;
57443;SDS011;43289;52.962;6.196;2024-01-27T05:39:28;28.55;;;4.93;;
57443;SDS011;43289;52.962;6.196;2024-01-27T05:41:54;28.25;;;5.45;;
57443;SDS011;43289;52.962;6.196;2024-01-27T05:44:20;16.35;;;4.15;;
57443;SDS011;43289;52.962;6.196;2024-01-27T05:46:46;15.90;;;4.82;;
57443;SDS011;43289;52.962;6.196;2024-01-27T05:49:15;18.25;;;3.85;;
57443;SDS011;43289;52.962;6.196;2024-01-27T05:51:41;21.77;;;4.50;;
57443;SDS011;43289;52.962;6.196;2024-01-27T05:54:08;19.50;;;4.60;;
57443;SDS011;43289;52.962;6.196;2024-01-27T05:56:35;21.48;;;5.88;;
57443;SDS011;43289;52.962;6.196;2024-01-27T05:59:01;21.05;;;4.57;;
57443;SDS011;43289;52.962;6.196;2024-01-27T06:01:28;16.23;;;4.20;;
57443;SDS011;43289;52.962;6.196;2024-01-27T06:03:54;17.25;;;4.88;;
57443;SDS011;43289;52.962;6.196;2024-01-27T06:06:20;21.67;;;4.43;;
57443;SDS011;43289;52.962;6.196;2024-01-27T06:08:46;19.00;;;4.88;;
57443;SDS011;43289;52.962;6.196;2024-01-27T06:11:12;12.77;;;4.13;;
57443;SDS011;43289;52.962;6.196;2024-01-27T06:13:38;15.23;;;5.00;;
57443;SDS011;43289;52.962;6.196;2024-01-27T06:16:06;16.15;;;4.60;;
57443;SDS011;43289;52.962;6.196;2024-01-27T06:18:33;16.77;;;4.32;;
57443;SDS011;43289;52.962;6.196;2024-01-27T06:21:00;15.52;;;4.75;;
57443;SDS011;43289;52.962;6.196;2024-01-27T06:23:26;25.15;;;5.80;;
57443;SDS011;43289;52.962;6.196;2024-01-27T06:25:52;17.45;;;4.70;;
57443;SDS011;43289;52.962;6.196;2024-01-27T06:28:18;19.02;;;4.57;;
57443;SDS011;43289;52.962;6.196;2024-01-27T06:30:44;19.23;;;5.20;;
57443;SDS011;43289;52.962;6.196;2024-01-27T06:33:11;16.10;;;4.07;;
57443;SDS011;43289;52.962;6.196;2024-01-27T06:35:37;14.32;;;4.57;;
57443;SDS011;43289;52.962;6.196;2024-01-27T06:38:03;21.48;;;5.25;;
57443;SDS011;43289;52.962;6.196;2024-01-27T06:40:30;16.48;;;4.22;;
57443;SDS011;43289;52.962;6.196;2024-01-27T06:42:56;22.42;;;5.78;;
57443;SDS011;43289;52.962;6.196;2024-01-27T06:45:22;21.30;;;5.88;;
57443;SDS011;43289;52.962;6.196;2024-01-27T06:47:48;20.80;;;5.55;;
57443;SDS011;43289;52.962;6.196;2024-01-27T06:50:14;16.42;;;6.00;;
57443;SDS011;43289;52.962;6.196;2024-01-27T06:52:40;23.20;;;6.45;;
57443;SDS011;43289;52.962;6.196;2024-01-27T06:55:06;23.10;;;6.45;;
57443;SDS011;43289;52.962;6.196;2024-01-27T06:57:32;23.30;;;5.80;;
57443;SDS011;43289;52.962;6.196;2024-01-27T06:59:58;19.30;;;4.38;;
57443;SDS011;43289;52.962;6.196;2024-01-27T07:02:25;18.23;;;5.05;;
57443;SDS011;43289;52.962;6.196;2024-01-27T07:04:51;17.45;;;5.13;;
57443;SDS011;43289;52.962;6.196;2024-01-27T07:07:18;17.02;;;5.50;;
57443;SDS011;43289;52.962;6.196;2024-01-27T07:09:46;20.02;;;5.40;;
57443;SDS011;43289;52.962;6.196;2024-01-27T07:12:12;16.95;;;5.35;;
57443;SDS011;43289;52.962;6.196;2024-01-27T07:14:38;18.45;;;5.25;;
57443;SDS011;43289;52.962;6.196;2024-01-27T07:17:04;22.10;;;5.25;;
57443;SDS011;43289;52.962;6.196;2024-01-27T07:19:31;19.48;;;5.97;;
57443;SDS011;43289;52.962;6.196;2024-01-27T07:21:57;19.08;;;5.30;;
57443;SDS011;43289;52.962;6.196;2024-01-27T07:24:25;20.77;;;6.18;;
57443;SDS011;43289;52.962;6.196;2024-01-27T07:26:51;19.10;;;6.20;;
57443;SDS011;43289;52.962;6.196;2024-01-27T07:29:17;16.98;;;4.75;;
57443;SDS011;43289;52.962;6.196;2024-01-27T07:31:43;20.38;;;5.65;;
57443;SDS011;43289;52.962;6.196;2024-01-27T07:34:09;22.52;;;5.65;;
57443;SDS011;43289;52.962;6.196;2024-01-27T07:36:35;25.50;;;6.13;;
57443;SDS011;43289;52.962;6.196;2024-01-27T07:39:01;21.35;;;5.97;;
57443;SDS011;43289;52.962;6.196;2024-01-27T07:41:29;20.15;;;5.65;;
57443;SDS011;43289;52.962;6.196;2024-01-27T07:43:55;21.40;;;6.20;;
57443;SDS011;43289;52.962;6.196;2024-01-27T07:46:21;22.80;;;6.95;;
57443;SDS011;43289;52.962;6.196;2024-01-27T07:48:48;20.40;;;7.65;;
57443;SDS011;43289;52.962;6.196;2024-01-27T07:51:15;19.48;;;5.50;;
57443;SDS011;43289;52.962;6.196;2024-01-27T07:53:41;22.25;;;6.53;;
57443;SDS011;43289;52.962;6.196;2024-01-27T07:56:07;19.38;;;6.60;;
57443;SDS011;43289;52.962;6.196;2024-01-27T07:58:33;21.50;;;9.50;;
57443;SDS011;43289;52.962;6.196;2024-01-27T08:00:59;18.02;;;8.80;;
57443;SDS011;43289;52.962;6.196;2024-01-27T08:03:25;20.05;;;7.40;;
57443;SDS011;43289;52.962;6.196;2024-01-27T08:05:52;17.50;;;7.45;;
57443;SDS011;43289;52.962;6.196;2024-01-27T08:08:18;20.10;;;6.43;;
57443;SDS011;43289;52.962;6.196;2024-01-27T08:10:44;22.50;;;7.32;;
57443;SDS011;43289;52.962;6.196;2024-01-27T08:13:10;30.90;;;8.02;;
57443;SDS011;43289;52.962;6.196;2024-01-27T08:15:36;22.13;;;7.72;;
57443;SDS011;43289;52.962;6.196;2024-01-27T08:18:02;23.65;;;7.70;;
57443;SDS011;43289;52.962;6.196;2024-01-27T08:20:28;19.05;;;7.88;;
57443;SDS011;43289;52.962;6.196;2024-01-27T08:22:54;20.08;;;8.85;;
57443;SDS011;43289;52.962;6.196;2024-01-27T08:25:20;19.77;;;8.60;;
57443;SDS011;43289;52.962;6.196;2024-01-27T08:27:46;19.27;;;8.70;;
57443;SDS011;43289;52.962;6.196;2024-01-27T08:30:12;23.67;;;8.77;;
57443;SDS011;43289;52.962;6.196;2024-01-27T08:32:39;21.50;;;7.82;;
57443;SDS011;43289;52.962;6.196;2024-01-27T08:35:05;22.15;;;8.80;;
57443;SDS011;43289;52.962;6.196;2024-01-27T08:37:31;21.90;;;8.65;;
57443;SDS011;43289;52.962;6.196;2024-01-27T08:40:03;22.88;;;8.88;;
57443;SDS011;43289;52.962;6.196;2024-01-27T08:42:29;24.33;;;8.32;;
57443;SDS011;43289;52.962;6.196;2024-01-27T08:44:55;23.58;;;8.77;;
57443;SDS011;43289;52.962;6.196;2024-01-27T08:47:21;20.45;;;8.10;;
57443;SDS011;43289;52.962;6.196;2024-01-27T08:49:47;20.75;;;9.05;;
57443;SDS011;43289;52.962;6.196;2024-01-27T08:52:14;26.40;;;9.52;;
57443;SDS011;43289;52.962;6.196;2024-01-27T08:54:40;25.42;;;8.35;;
57443;SDS011;43289;52.962;6.196;2024-01-27T08:57:06;21.10;;;8.45;;
57443;SDS011;43289;52.962;6.196;2024-01-27T08:59:32;23.75;;;9.00;;
57443;SDS011;43289;52.962;6.196;2024-01-27T09:01:59;22.13;;;8.05;;
57443;SDS011;43289;52.962;6.196;2024-01-27T09:04:25;19.45;;;8.50;;
57443;SDS011;43289;52.962;6.196;2024-01-27T09:06:51;29.60;;;9.77;;
57443;SDS011;43289;52.962;6.196;2024-01-27T09:09:17;29.17;;;10.15;;
57443;SDS011;43289;52.962;6.196;2024-01-27T09:11:43;20.25;;;9.45;;
57443;SDS011;43289;52.962;6.196;2024-01-27T09:14:12;21.27;;;9.43;;
57443;SDS011;43289;52.962;6.196;2024-01-27T09:16:38;21.90;;;8.98;;
57443;SDS011;43289;52.962;6.196;2024-01-27T09:19:06;22.02;;;9.32;;
57443;SDS011;43289;52.962;6.196;2024-01-27T09:21:33;25.55;;;9.68;;
57443;SDS011;43289;52.962;6.196;2024-01-27T09:23:59;17.05;;;7.55;;
57443;SDS011;43289;52.962;6.196;2024-01-27T09:26:27;20.60;;;9.38;;
57443;SDS011;43289;52.962;6.196;2024-01-27T09:28:53;19.48;;;8.68;;
57443;SDS011;43289;52.962;6.196;2024-01-27T09:31:20;22.38;;;9.60;;
57443;SDS011;43289;52.962;6.196;2024-01-27T09:33:48;23.50;;;8.60;;
57443;SDS011;43289;52.962;6.196;2024-01-27T09:36:14;17.67;;;8.32;;
57443;SDS011;43289;52.962;6.196;2024-01-27T09:38:40;21.30;;;8.95;;
57443;SDS011;43289;52.962;6.196;2024-01-27T09:41:06;19.60;;;9.48;;
57443;SDS011;43289;52.962;6.196;2024-01-27T09:43:32;17.73;;;7.72;;
57443;SDS011;43289;52.962;6.196;2024-01-27T09:45:59;16.73;;;8.23;;
57443;SDS011;43289;52.962;6.196;2024-01-27T09:48:25;24.13;;;8.77;;
57443;SDS011;43289;52.962;6.196;2024-01-27T09:50:51;19.23;;;8.55;;
57443;SDS011;43289;52.962;6.196;2024-01-27T09:53:18;20.17;;;7.55;;
57443;SDS011;43289;52.962;6.196;2024-01-27T09:55:44;19.88;;;7.18;;
57443;SDS011;43289;52.962;6.196;2024-01-27T09:58:10;15.15;;;7.03;;
57443;SDS011;43289;52.962;6.196;2024-01-27T10:00:37;17.90;;;7.32;;
57443;SDS011;43289;52.962;6.196;2024-01-27T10:03:04;12.10;;;6.47;;
57443;SDS011;43289;52.962;6.196;2024-01-27T10:05:31;18.27;;;6.93;;
57443;SDS011;43289;52.962;6.196;2024-01-27T10:07:57;12.85;;;5.90;;
57443;SDS011;43289;52.962;6.196;2024-01-27T10:10:23;20.10;;;8.35;;
57443;SDS011;43289;52.962;6.196;2024-01-27T10:12:49;17.73;;;6.80;;
57443;SDS011;43289;52.962;6.196;2024-01-27T10:15:22;17.55;;;6.85;;
57443;SDS011;43289;52.962;6.196;2024-01-27T10:17:48;23.17;;;9.27;;
57443;SDS011;43289;52.962;6.196;2024-01-27T10:20:14;21.88;;;7.47;;
57443;SDS011;43289;52.962;6.196;2024-01-27T10:22:41;18.33;;;8.60;;
57443;SDS011;43289;52.962;6.196;2024-01-27T10:25:07;17.85;;;6.75;;
57443;SDS011;43289;52.962;6.196;2024-01-27T10:27:34;18.42;;;8.15;;
57443;SDS011;43289;52.962;6.196;2024-01-27T10:30:01;17.10;;;7.93;;
57443;SDS011;43289;52.962;6.196;2024-01-27T10:32:27;21.75;;;9.90;;
57443;SDS011;43289;52.962;6.196;2024-01-27T10:37:28;21.73;;;8.75;;
57443;SDS011;43289;52.962;6.196;2024-01-27T10:40:13;22.70;;;8.52;;
57443;SDS011;43289;52.962;6.196;2024-01-27T10:42:41;16.38;;;7.97;;
57443;SDS011;43289;52.962;6.196;2024-01-27T10:45:08;24.75;;;9.25;;
57443;SDS011;43289;52.962;6.196;2024-01-27T10:47:36;18.10;;;8.93;;
57443;SDS011;43289;52.962;6.196;2024-01-27T10:50:04;20.52;;;8.73;;
57443;SDS011;43289;52.962;6.196;2024-01-27T10:52:34;23.45;;;9.93;;
57443;SDS011;43289;52.962;6.196;2024-01-27T10:55:03;21.90;;;8.95;;
57443;SDS011;43289;52.962;6.196;2024-01-27T10:57:36;22.33;;;8.32;;
57443;SDS011;43289;52.962;6.196;2024-01-27T11:00:03;15.35;;;8.15;;
57443;SDS011;43289;52.962;6.196;2024-01-27T11:02:34;21.40;;;9.38;;
57443;SDS011;43289;52.962;6.196;2024-01-27T11:05:02;24.88;;;10.25;;
57443;SDS011;43289;52.962;6.196;2024-01-27T11:07:30;26.50;;;9.60;;
57443;SDS011;43289;52.962;6.196;2024-01-27T11:09:57;22.70;;;8.50;;
57443;SDS011;43289;52.962;6.196;2024-01-27T11:12:23;19.05;;;6.95;;
57443;SDS011;43289;52.962;6.196;2024-01-27T11:14:50;17.30;;;7.35;;
57443;SDS011;43289;52.962;6.196;2024-01-27T11:17:17;22.90;;;9.25;;
57443;SDS011;43289;52.962;6.196;2024-01-27T11:19:46;21.05;;;9.68;;
57443;SDS011;43289;52.962;6.196;2024-01-27T11:22:25;25.13;;;9.27;;
57443;SDS011;43289;52.962;6.196;2024-01-27T11:24:52;19.73;;;9.10;;
57443;SDS011;43289;52.962;6.196;2024-01-27T11:27:19;18.65;;;8.25;;
57443;SDS011;43289;52.962;6.196;2024-01-27T11:29:54;14.48;;;5.50;;
57443;SDS011;43289;52.962;6.196;2024-01-27T11:32:20;15.35;;;7.18;;
57443;SDS011;43289;52.962;6.196;2024-01-27T11:34:47;16.77;;;7.05;;
57443;SDS011;43289;52.962;6.196;2024-01-27T11:37:16;16.20;;;5.80;;
57443;SDS011;43289;52.962;6.196;2024-01-27T11:39:45;19.88;;;6.60;;
57443;SDS011;43289;52.962;6.196;2024-01-27T11:42:11;13.18;;;5.10;;
57443;SDS011;43289;52.962;6.196;2024-01-27T11:44:38;12.80;;;5.32;;
57443;SDS011;43289;52.962;6.196;2024-01-27T11:47:05;14.70;;;5.75;;
57443;SDS011;43289;52.962;6.196;2024-01-27T11:49:32;17.48;;;6.20;;
57443;SDS011;43289;52.962;6.196;2024-01-27T11:51:59;13.07;;;5.13;;
57443;SDS011;43289;52.962;6.196;2024-01-27T11:54:25;17.83;;;6.25;;
57443;SDS011;43289;52.962;6.196;2024-01-27T11:56:51;15.30;;;5.65;;
57443;SDS011;43289;52.962;6.196;2024-01-27T11:59:17;17.42;;;5.82;;
57443;SDS011;43289;52.962;6.196;2024-01-27T12:01:43;19.55;;;5.70;;
57443;SDS011;43289;52.962;6.196;2024-01-27T12:04:09;15.88;;;5.57;;
57443;SDS011;43289;52.962;6.196;2024-01-27T12:06:35;14.20;;;5.22;;
57443;SDS011;43289;52.962;6.196;2024-01-27T12:09:02;16.17;;;5.65;;
57443;SDS011;43289;52.962;6.196;2024-01-27T12:11:29;10.55;;;4.63;;
57443;SDS011;43289;52.962;6.196;2024-01-27T12:13:56;16.00;;;5.03;;
57443;SDS011;43289;52.962;6.196;2024-01-27T12:16:22;12.43;;;4.63;;
57443;SDS011;43289;52.962;6.196;2024-01-27T12:18:51;15.60;;;5.90;;
57443;SDS011;43289;52.962;6.196;2024-01-27T12:21:19;11.65;;;5.47;;
57443;SDS011;43289;52.962;6.196;2024-01-27T12:23:55;11.77;;;4.55;;
57443;SDS011;43289;52.962;6.196;2024-01-27T12:26:25;21.48;;;5.55;;
57443;SDS011;43289;52.962;6.196;2024-01-27T12:28:51;16.17;;;4.65;;
57443;SDS011;43289;52.962;6.196;2024-01-27T12:31:18;11.77;;;4.68;;
57443;SDS011;43289;52.962;6.196;2024-01-27T12:33:54;23.55;;;6.70;;
57443;SDS011;43289;52.962;6.196;2024-01-27T12:36:20;14.75;;;4.78;;
57443;SDS011;43289;52.962;6.196;2024-01-27T12:38:47;14.57;;;5.18;;
57443;SDS011;43289;52.962;6.196;2024-01-27T12:41:13;16.10;;;4.53;;
57443;SDS011;43289;52.962;6.196;2024-01-27T12:43:39;11.40;;;5.15;;
57443;SDS011;43289;52.962;6.196;2024-01-27T12:46:05;18.08;;;5.97;;
57443;SDS011;43289;52.962;6.196;2024-01-27T12:48:31;17.30;;;5.05;;
57443;SDS011;43289;52.962;6.196;2024-01-27T12:50:57;14.80;;;4.88;;
57443;SDS011;43289;52.962;6.196;2024-01-27T12:53:25;14.23;;;5.40;;
57443;SDS011;43289;52.962;6.196;2024-01-27T12:55:51;14.07;;;5.22;;
57443;SDS011;43289;52.962;6.196;2024-01-27T12:58:17;16.35;;;5.43;;
57443;SDS011;43289;52.962;6.196;2024-01-27T13:00:43;15.73;;;5.00;;
57443;SDS011;43289;52.962;6.196;2024-01-27T13:03:09;17.95;;;6.00;;
57443;SDS011;43289;52.962;6.196;2024-01-27T13:05:35;13.55;;;5.35;;
57443;SDS011;43289;52.962;6.196;2024-01-27T13:08:03;20.48;;;6.57;;
57443;SDS011;43289;52.962;6.196;2024-01-27T13:10:29;16.00;;;5.13;;
57443;SDS011;43289;52.962;6.196;2024-01-27T13:12:55;17.40;;;5.43;;
57443;SDS011;43289;52.962;6.196;2024-01-27T13:15:23;21.10;;;5.95;;
57443;SDS011;43289;52.962;6.196;2024-01-27T13:17:51;14.07;;;4.72;;
57443;SDS011;43289;52.962;6.196;2024-01-27T13:20:17;16.35;;;4.28;;
57443;SDS011;43289;52.962;6.196;2024-01-27T13:22:43;9.38;;;4.57;;
57443;SDS011;43289;52.962;6.196;2024-01-27T13:25:10;15.20;;;4.45;;
57443;SDS011;43289;52.962;6.196;2024-01-27T13:27:36;21.52;;;5.78;;
57443;SDS011;43289;52.962;6.196;2024-01-27T13:30:02;18.33;;;5.68;;
57443;SDS011;43289;52.962;6.196;2024-01-27T13:32:28;12.25;;;5.88;;
57443;SDS011;43289;52.962;6.196;2024-01-27T13:34:54;16.17;;;6.22;;
57443;SDS011;43289;52.962;6.196;2024-01-27T13:37:20;15.80;;;5.90;;
57443;SDS011;43289;52.962;6.196;2024-01-27T13:39:47;24.33;;;5.82;;
57443;SDS011;43289;52.962;6.196;2024-01-27T13:42:13;18.48;;;6.63;;
57443;SDS011;43289;52.962;6.196;2024-01-27T13:44:39;15.05;;;6.43;;
57443;SDS011;43289;52.962;6.196;2024-01-27T13:47:05;16.65;;;6.47;;
57443;SDS011;43289;52.962;6.196;2024-01-27T13:49:34;22.17;;;6.60;;
57443;SDS011;43289;52.962;6.196;2024-01-27T13:52:01;20.65;;;6.15;;
57443;SDS011;43289;52.962;6.196;2024-01-27T13:54:27;16.50;;;7.03;;
57443;SDS011;43289;52.962;6.196;2024-01-27T13:56:54;20.88;;;5.80;;
57443;SDS011;43289;52.962;6.196;2024-01-27T13:59:20;20.42;;;7.35;;
57443;SDS011;43289;52.962;6.196;2024-01-27T14:01:54;13.90;;;6.10;;
57443;SDS011;43289;52.962;6.196;2024-01-27T14:04:26;13.55;;;5.70;;
57443;SDS011;43289;52.962;6.196;2024-01-27T14:06:52;17.35;;;6.35;;
57443;SDS011;43289;52.962;6.196;2024-01-27T14:09:19;17.75;;;6.50;;
57443;SDS011;43289;52.962;6.196;2024-01-27T14:11:46;16.48;;;7.25;;
57443;SDS011;43289;52.962;6.196;2024-01-27T14:14:12;14.57;;;6.10;;
57443;SDS011;43289;52.962;6.196;2024-01-27T14:16:38;16.98;;;6.28;;
57443;SDS011;43289;52.962;6.196;2024-01-27T14:19:05;17.90;;;7.38;;
57443;SDS011;43289;52.962;6.196;2024-01-27T14:21:31;20.58;;;7.97;;
57443;SDS011;43289;52.962;6.196;2024-01-27T14:23:57;17.90;;;6.72;;
57443;SDS011;43289;52.962;6.196;2024-01-27T14:26:31;11.57;;;4.68;;
57443;SDS011;43289;52.962;6.196;2024-01-27T14:28:57;23.23;;;6.55;;
57443;SDS011;43289;52.962;6.196;2024-01-27T14:31:23;15.18;;;6.35;;